createdAt,value
2023-11-17T00:00:11.548Z,990.22
2023-11-17T00:01:11.921Z,990.22
2023-11-17T00:02:11.491Z,990.26
2023-11-17T00:03:11.668Z,990.18
2023-11-17T00:04:11.612Z,990.19
2023-11-17T00:05:11.815Z,990.25
2023-11-17T00:06:11.440Z,990.31
2023-11-17T00:07:11.565Z,990.30
2023-11-17T00:08:11.767Z,990.34
2023-11-17T00:09:11.507Z,990.37
2023-11-17T00:10:11.502Z,990.37
2023-11-17T00:11:11.464Z,990.39
2023-11-17T00:12:11.501Z,990.38
2023-11-17T00:13:11.407Z,990.39
2023-11-17T00:14:11.471Z,990.41
2023-11-17T00:15:11.382Z,990.42
2023-11-17T00:16:11.547Z,990.43
2023-11-17T00:17:11.446Z,990.46
2023-11-17T00:18:11.386Z,990.44
2023-11-17T00:19:11.415Z,990.47
2023-11-17T00:20:11.349Z,990.57
2023-11-17T00:21:11.416Z,990.53
2023-11-17T00:22:11.435Z,990.51
2023-11-17T00:23:11.421Z,990.54
2023-11-17T00:24:11.589Z,990.58
2023-11-17T00:25:11.485Z,990.57
2023-11-17T00:26:11.468Z,990.52
2023-11-17T00:27:11.591Z,990.58
2023-11-17T00:28:11.694Z,990.57
2023-11-17T00:29:11.526Z,990.61
2023-11-17T00:30:11.508Z,990.62
2023-11-17T00:31:11.381Z,990.64
2023-11-17T00:32:11.352Z,990.58
2023-11-17T00:33:11.270Z,990.70
2023-11-17T00:34:11.716Z,990.63
2023-11-17T00:35:11.435Z,990.69
2023-11-17T00:36:11.261Z,990.66
2023-11-17T00:37:11.555Z,990.76
2023-11-17T00:38:11.308Z,990.70
2023-11-17T00:39:11.244Z,990.70
2023-11-17T00:40:11.308Z,990.71
2023-11-17T00:41:17.791Z,990.73
2023-11-17T00:42:12.175Z,990.72
2023-11-17T00:43:11.297Z,990.76
2023-11-17T00:44:11.380Z,990.89
2023-11-17T00:45:11.251Z,990.79
2023-11-17T00:46:11.630Z,990.90
2023-11-17T00:47:11.542Z,990.89
2023-11-17T00:48:11.254Z,990.92
2023-11-17T00:49:11.235Z,990.92
2023-11-17T00:50:11.220Z,990.94
2023-11-17T00:51:11.762Z,990.99
2023-11-17T00:52:11.232Z,990.95
2023-11-17T00:53:11.315Z,990.98
2023-11-17T00:54:11.111Z,990.98
2023-11-17T00:55:11.137Z,990.92
2023-11-17T00:56:11.175Z,990.93
2023-11-17T00:57:11.097Z,990.95
2023-11-17T00:58:11.125Z,990.93
2023-11-17T00:59:11.149Z,990.97
2023-11-17T01:00:11.053Z,990.94
2023-11-17T01:01:11.219Z,990.99
2023-11-17T01:02:11.094Z,991.01
2023-11-17T01:03:11.753Z,991.02
2023-11-17T01:04:11.055Z,991.07
2023-11-17T01:05:11.057Z,991.09
2023-11-17T01:06:11.064Z,991.11
2023-11-17T01:07:11.111Z,991.09
2023-11-17T01:08:10.993Z,991.11
2023-11-17T01:09:11.024Z,991.14
2023-11-17T01:10:11.244Z,991.18
2023-11-17T01:11:11.003Z,991.17
2023-11-17T01:12:11.045Z,991.16
2023-11-17T01:13:11.047Z,991.11
2023-11-17T01:14:10.990Z,991.21
2023-11-17T01:15:10.966Z,991.25
2023-11-17T01:16:11.006Z,991.28
2023-11-17T01:17:10.959Z,991.31
2023-11-17T01:18:11.037Z,991.32
2023-11-17T01:19:10.979Z,991.41
2023-11-17T01:20:11.070Z,991.43
2023-11-17T01:21:11.279Z,991.38
2023-11-17T01:22:10.959Z,991.37
2023-11-17T01:23:11.102Z,991.41
2023-11-17T01:24:10.892Z,991.40
2023-11-17T01:25:10.930Z,991.46
2023-11-17T01:26:10.967Z,991.45
2023-11-17T01:27:10.901Z,991.52
2023-11-17T01:28:10.910Z,991.49
2023-11-17T01:29:10.861Z,991.50
2023-11-17T01:30:10.946Z,991.55
2023-11-17T01:31:10.952Z,991.55
2023-11-17T01:32:10.841Z,991.59
2023-11-17T01:33:10.936Z,991.56
2023-11-17T01:34:10.906Z,991.65
2023-11-17T01:35:10.903Z,991.61
2023-11-17T01:36:10.828Z,991.68
2023-11-17T01:37:10.876Z,991.71
2023-11-17T01:38:10.837Z,991.74
2023-11-17T01:39:10.829Z,991.73
2023-11-17T01:40:10.848Z,991.78
2023-11-17T01:41:10.791Z,991.79
2023-11-17T01:42:10.798Z,991.81
2023-11-17T01:43:10.914Z,991.89
2023-11-17T01:44:10.817Z,991.91
2023-11-17T01:45:10.779Z,991.96
2023-11-17T01:46:10.864Z,991.96
2023-11-17T01:47:10.829Z,991.95
2023-11-17T01:48:10.798Z,991.94
2023-11-17T01:49:10.754Z,991.98
2023-11-17T01:50:10.830Z,991.98
2023-11-17T01:51:10.779Z,991.98
2023-11-17T01:52:10.998Z,992.01
2023-11-17T01:53:10.711Z,992.02
2023-11-17T01:54:10.751Z,992.05
2023-11-17T01:55:10.898Z,992.02
2023-11-17T01:56:10.724Z,992.03
2023-11-17T01:57:10.813Z,991.99
2023-11-17T01:58:10.851Z,992.01
2023-11-17T01:59:10.669Z,992.09
2023-11-17T02:00:10.689Z,992.06
2023-11-17T02:01:10.753Z,992.03
2023-11-17T02:02:10.731Z,992.10
2023-11-17T02:03:10.714Z,992.13
2023-11-17T02:04:10.657Z,992.17
2023-11-17T02:05:10.622Z,992.08
2023-11-17T02:06:10.644Z,992.17
2023-11-17T02:07:10.657Z,992.12
2023-11-17T02:08:10.648Z,992.12
2023-11-17T02:09:10.590Z,992.13
2023-11-17T02:10:10.628Z,992.11
2023-11-17T02:11:10.655Z,992.13
2023-11-17T02:12:10.602Z,992.15
2023-11-17T02:13:10.649Z,992.16
2023-11-17T02:14:10.775Z,992.14
2023-11-17T02:15:10.564Z,992.17
2023-11-17T02:16:10.636Z,992.20
2023-11-17T02:17:10.561Z,992.17
2023-11-17T02:18:10.535Z,992.26
2023-11-17T02:19:10.524Z,992.23
2023-11-17T02:20:10.526Z,992.20
2023-11-17T02:21:10.590Z,992.26
2023-11-17T02:22:10.688Z,992.21
2023-11-17T02:23:10.509Z,992.20
2023-11-17T02:24:10.500Z,992.21
2023-11-17T02:25:10.526Z,992.28
2023-11-17T02:26:10.489Z,992.32
2023-11-17T02:27:10.469Z,992.30
2023-11-17T02:28:10.510Z,992.35
2023-11-17T02:29:10.470Z,992.33
2023-11-17T02:30:10.453Z,992.33
2023-11-17T02:31:10.589Z,992.34
2023-11-17T02:32:10.519Z,992.43
2023-11-17T02:33:10.483Z,992.45
2023-11-17T02:34:10.522Z,992.40
2023-11-17T02:35:10.420Z,992.41
2023-11-17T02:36:10.562Z,992.41
2023-11-17T02:37:10.437Z,992.40
2023-11-17T02:38:10.429Z,992.40
2023-11-17T02:39:10.397Z,992.46
2023-11-17T02:40:10.459Z,992.48
2023-11-17T02:41:10.408Z,992.45
2023-11-17T02:42:10.485Z,992.45
2023-11-17T02:43:10.428Z,992.42
2023-11-17T02:44:10.377Z,992.45
2023-11-17T02:45:10.363Z,992.48
2023-11-17T02:46:10.468Z,992.51
2023-11-17T02:47:10.458Z,992.53
2023-11-17T02:48:18.131Z,992.51
2023-11-17T02:49:11.353Z,992.56
2023-11-17T02:50:10.351Z,992.60
2023-11-17T02:51:10.340Z,992.66
2023-11-17T02:52:10.400Z,992.64
2023-11-17T02:53:10.323Z,992.65
2023-11-17T02:54:10.317Z,992.67
2023-11-17T02:55:10.337Z,992.70
2023-11-17T02:56:10.766Z,992.70
2023-11-17T02:57:10.273Z,992.75
2023-11-17T02:58:10.456Z,992.70
2023-11-17T02:59:10.382Z,992.74
2023-11-17T03:00:10.281Z,992.72
2023-11-17T03:01:10.385Z,992.74
2023-11-17T03:02:10.288Z,992.82
2023-11-17T03:03:10.343Z,992.80
2023-11-17T03:04:10.377Z,992.82
2023-11-17T03:05:10.288Z,992.83
2023-11-17T03:06:10.278Z,992.82
2023-11-17T03:07:10.267Z,992.85
2023-11-17T03:08:10.203Z,992.86
2023-11-17T03:09:10.401Z,992.85
2023-11-17T03:10:10.277Z,992.82
2023-11-17T03:11:10.406Z,992.86
2023-11-17T03:12:10.180Z,992.89
2023-11-17T03:13:10.503Z,992.95
2023-11-17T03:14:10.181Z,993.05
2023-11-17T03:15:10.166Z,993.02
2023-11-17T03:16:10.278Z,993.03
2023-11-17T03:17:10.342Z,993.02
2023-11-17T03:18:10.159Z,993.02
2023-11-17T03:19:10.222Z,993.03
2023-11-17T03:20:10.131Z,993.11
2023-11-17T03:21:12.743Z,993.09
2023-11-17T03:22:10.380Z,993.11
2023-11-17T03:23:10.110Z,993.10
2023-11-17T03:24:10.092Z,993.10
2023-11-17T03:25:10.143Z,993.13
2023-11-17T03:26:10.138Z,993.15
2023-11-17T03:27:10.078Z,993.18
2023-11-17T03:28:10.685Z,993.16
2023-11-17T03:29:10.096Z,993.20
2023-11-17T03:30:10.092Z,993.23
2023-11-17T03:31:10.162Z,993.18
2023-11-17T03:32:10.125Z,993.27
2023-11-17T03:33:10.191Z,993.28
2023-11-17T03:34:10.092Z,993.27
2023-11-17T03:35:10.022Z,993.35
2023-11-17T03:36:10.130Z,993.40
2023-11-17T03:37:10.072Z,993.35
2023-11-17T03:38:10.003Z,993.37
2023-11-17T03:39:10.068Z,993.42
2023-11-17T03:40:10.050Z,993.39
2023-11-17T03:41:10.132Z,993.41
2023-11-17T03:42:10.032Z,993.42
2023-11-17T03:43:10.054Z,993.42
2023-11-17T03:44:09.989Z,993.39
2023-11-17T03:45:09.950Z,993.39
2023-11-17T03:46:10.284Z,993.39
2023-11-17T03:47:10.026Z,993.42
2023-11-17T03:48:10.003Z,993.39
2023-11-17T03:49:10.073Z,993.37
2023-11-17T03:50:09.969Z,993.40
2023-11-17T03:51:10.323Z,993.43
2023-11-17T03:52:09.922Z,993.44
2023-11-17T03:53:09.908Z,993.46
2023-11-17T03:54:09.898Z,993.44
2023-11-17T03:55:09.910Z,993.49
2023-11-17T03:56:09.891Z,993.50
2023-11-17T03:57:09.912Z,993.53
2023-11-17T03:58:09.927Z,993.51
2023-11-17T03:59:09.878Z,993.50
2023-11-17T04:00:09.858Z,993.50
2023-11-17T04:01:09.964Z,993.51
2023-11-17T04:02:09.850Z,993.56
2023-11-17T04:03:10.030Z,993.58
2023-11-17T04:04:09.862Z,993.61
2023-11-17T04:05:10.060Z,993.61
2023-11-17T04:06:09.989Z,993.69
2023-11-17T04:07:09.855Z,993.60
2023-11-17T04:08:09.906Z,993.61
2023-11-17T04:09:09.807Z,993.64
2023-11-17T04:10:09.872Z,993.64
2023-11-17T04:11:09.892Z,993.69
2023-11-17T04:12:09.784Z,993.71
2023-11-17T04:13:09.835Z,993.73
2023-11-17T04:14:09.782Z,993.76
2023-11-17T04:15:12.262Z,993.81
2023-11-17T04:16:09.792Z,993.72
2023-11-17T04:17:09.912Z,993.85
2023-11-17T04:18:09.743Z,993.77
2023-11-17T04:19:09.747Z,993.78
2023-11-17T04:20:09.733Z,993.76
2023-11-17T04:21:09.724Z,993.72
2023-11-17T04:22:09.747Z,993.82
2023-11-17T04:23:09.706Z,993.73
2023-11-17T04:24:09.709Z,993.75
2023-11-17T04:25:09.780Z,993.91
2023-11-17T04:26:09.758Z,993.85
2023-11-17T04:27:09.757Z,993.82
2023-11-17T04:28:09.743Z,993.92
2023-11-17T04:29:09.664Z,993.90
2023-11-17T04:30:09.751Z,993.93
2023-11-17T04:31:09.668Z,994.00
2023-11-17T04:32:09.640Z,993.98
2023-11-17T04:33:09.764Z,994.00
2023-11-17T04:34:09.752Z,993.99
2023-11-17T04:35:09.900Z,994.04
2023-11-17T04:36:09.618Z,993.97
2023-11-17T04:37:09.891Z,994.04
2023-11-17T04:38:09.606Z,993.98
2023-11-17T04:39:09.660Z,994.05
2023-11-17T04:40:09.592Z,994.07
2023-11-17T04:41:09.575Z,994.05
2023-11-17T04:42:09.588Z,994.03
2023-11-17T04:43:09.598Z,994.05
2023-11-17T04:44:09.550Z,994.01
2023-11-17T04:45:09.627Z,994.03
2023-11-17T04:46:09.651Z,994.04
2023-11-17T04:47:09.552Z,994.04
2023-11-17T04:48:09.552Z,994.01
2023-11-17T04:49:09.562Z,994.02
2023-11-17T04:50:09.578Z,994.02
2023-11-17T04:51:09.558Z,994.10
2023-11-17T04:52:09.589Z,994.10
2023-11-17T04:53:09.507Z,994.08
2023-11-17T04:54:09.501Z,994.09
2023-11-17T04:55:09.517Z,994.08
2023-11-17T04:56:09.484Z,994.07
2023-11-17T04:57:09.650Z,994.10
2023-11-17T04:58:09.513Z,994.04
2023-11-17T04:59:09.493Z,994.07
2023-11-17T05:00:09.456Z,994.14
2023-11-17T05:01:09.551Z,994.16
2023-11-17T05:02:09.576Z,994.16
2023-11-17T05:03:09.552Z,994.20
2023-11-17T05:04:09.581Z,994.15
2023-11-17T05:05:09.434Z,994.11
2023-11-17T05:06:09.441Z,994.16
2023-11-17T05:07:09.497Z,994.17
2023-11-17T05:08:09.404Z,994.19
2023-11-17T05:09:09.548Z,994.20
2023-11-17T05:10:09.569Z,994.27
2023-11-17T05:11:09.392Z,994.26
2023-11-17T05:12:09.372Z,994.29
2023-11-17T05:13:09.404Z,994.28
2023-11-17T05:14:09.365Z,994.30
2023-11-17T05:15:09.410Z,994.25
2023-11-17T05:16:09.462Z,994.32
2023-11-17T05:17:09.429Z,994.26
2023-11-17T05:18:09.523Z,994.26
2023-11-17T05:19:09.577Z,994.29
2023-11-17T05:20:09.335Z,994.33
2023-11-17T05:21:09.642Z,994.40
2023-11-17T05:22:09.326Z,994.41
2023-11-17T05:23:09.300Z,994.41
2023-11-17T05:24:09.319Z,994.43
2023-11-17T05:25:09.351Z,994.41
2023-11-17T05:26:09.284Z,994.41
2023-11-17T05:27:09.273Z,994.47
2023-11-17T05:28:09.331Z,994.46
2023-11-17T05:29:09.562Z,994.49
2023-11-17T05:30:09.351Z,994.51
2023-11-17T05:31:09.387Z,994.53
2023-11-17T05:32:09.516Z,994.50
2023-11-17T05:33:09.514Z,994.58
2023-11-17T05:34:09.326Z,994.65
2023-11-17T05:35:09.489Z,994.63
2023-11-17T05:36:09.226Z,994.64
2023-11-17T05:37:09.228Z,994.69
2023-11-17T05:38:09.200Z,994.70
2023-11-17T05:39:09.194Z,994.72
2023-11-17T05:40:09.299Z,994.79
2023-11-17T05:41:09.244Z,994.75
2023-11-17T05:42:09.217Z,994.74
2023-11-17T05:43:09.212Z,994.70
2023-11-17T05:44:09.166Z,994.70
2023-11-17T05:45:09.516Z,994.71
2023-11-17T05:46:09.207Z,994.69
2023-11-17T05:47:09.152Z,994.74
2023-11-17T05:48:09.216Z,994.66
2023-11-17T05:49:09.201Z,994.72
2023-11-17T05:50:09.222Z,994.78
2023-11-17T05:51:09.111Z,994.73
2023-11-17T05:52:09.145Z,994.73
2023-11-17T05:53:09.171Z,994.76
2023-11-17T05:54:09.103Z,994.75
2023-11-17T05:55:09.145Z,994.85
2023-11-17T05:56:09.201Z,994.76
2023-11-17T05:57:09.097Z,994.83
2023-11-17T05:58:09.185Z,994.87
2023-11-17T05:59:09.079Z,994.92
2023-11-17T06:00:09.070Z,994.88
2023-11-17T06:01:09.122Z,994.89
2023-11-17T06:02:09.069Z,994.83
2023-11-17T06:03:09.132Z,994.87
2023-11-17T06:04:09.166Z,994.93
2023-11-17T06:05:09.041Z,994.85
2023-11-17T06:06:09.053Z,994.91
2023-11-17T06:07:09.068Z,994.88
2023-11-17T06:08:09.019Z,994.93
2023-11-17T06:09:09.002Z,994.91
2023-11-17T06:10:09.029Z,994.95
2023-11-17T06:11:10.448Z,994.90
2023-11-17T06:12:09.625Z,994.92
2023-11-17T06:13:09.133Z,994.96
2023-11-17T06:14:09.487Z,994.93
2023-11-17T06:15:09.007Z,994.90
2023-11-17T06:16:09.632Z,994.96
2023-11-17T06:17:08.992Z,994.99
2023-11-17T06:18:11.208Z,994.90
2023-11-17T06:19:08.979Z,994.96
2023-11-17T06:20:11.422Z,994.93
2023-11-17T06:21:08.934Z,994.99
2023-11-17T06:22:11.010Z,994.93
2023-11-17T06:23:08.903Z,994.99
2023-11-17T06:24:08.912Z,994.92
2023-11-17T06:25:08.941Z,994.98
2023-11-17T06:26:09.043Z,994.99
2023-11-17T06:27:08.899Z,994.91
2023-11-17T06:28:08.946Z,995.04
2023-11-17T06:29:08.879Z,995.06
2023-11-17T06:30:08.907Z,995.08
2023-11-17T06:31:08.921Z,995.04
2023-11-17T06:32:08.900Z,995.10
2023-11-17T06:33:09.011Z,995.03
2023-11-17T06:34:08.902Z,995.00
2023-11-17T06:35:08.850Z,995.07
2023-11-17T06:36:08.827Z,995.04
2023-11-17T06:37:08.826Z,995.03
2023-11-17T06:38:08.901Z,994.99
2023-11-17T06:39:08.805Z,994.98
2023-11-17T06:40:08.983Z,994.93
2023-11-17T06:41:08.779Z,994.93
2023-11-17T06:42:08.776Z,994.91
2023-11-17T06:43:08.827Z,994.86
2023-11-17T06:44:08.773Z,994.82
2023-11-17T06:45:08.769Z,994.88
2023-11-17T06:46:08.830Z,994.88
2023-11-17T06:47:08.935Z,994.93
2023-11-17T06:48:08.875Z,994.99
2023-11-17T06:49:08.770Z,995.05
2023-11-17T06:50:08.736Z,995.03
2023-11-17T06:51:08.738Z,995.03
2023-11-17T06:52:08.983Z,995.04
2023-11-17T06:53:08.763Z,995.09
2023-11-17T06:54:09.028Z,995.09
2023-11-17T06:55:08.725Z,995.12
2023-11-17T06:56:08.697Z,995.17
2023-11-17T06:57:08.674Z,995.17
2023-11-17T06:58:08.727Z,995.21
2023-11-17T06:59:08.673Z,995.25
2023-11-17T07:00:08.815Z,995.30
2023-11-17T07:01:08.916Z,995.24
2023-11-17T07:02:08.704Z,995.15
2023-11-17T07:03:08.823Z,995.25
2023-11-17T07:04:08.825Z,995.22
2023-11-17T07:05:08.645Z,995.20
2023-11-17T07:06:08.660Z,995.16
2023-11-17T07:07:11.329Z,995.17
2023-11-17T07:08:08.628Z,995.20
2023-11-17T07:09:08.585Z,995.11
2023-11-17T07:10:08.772Z,995.12
2023-11-17T07:11:08.585Z,995.17
2023-11-17T07:12:08.684Z,995.21
2023-11-17T07:13:08.669Z,995.20
2023-11-17T07:14:08.588Z,995.22
2023-11-17T07:15:08.584Z,995.26
2023-11-17T07:16:08.590Z,995.26
2023-11-17T07:17:08.590Z,995.26
2023-11-17T07:18:08.668Z,995.21
2023-11-17T07:19:08.566Z,995.30
2023-11-17T07:20:08.542Z,995.25
2023-11-17T07:21:08.534Z,995.25
2023-11-17T07:22:08.610Z,995.26
2023-11-17T07:23:08.552Z,995.23
2023-11-17T07:24:08.499Z,995.25
2023-11-17T07:25:08.650Z,995.23
2023-11-17T07:26:08.614Z,995.26
2023-11-17T07:27:08.466Z,995.26
2023-11-17T07:28:08.516Z,995.30
2023-11-17T07:29:08.511Z,995.34
2023-11-17T07:30:08.520Z,995.39
2023-11-17T07:31:08.496Z,995.38
2023-11-17T07:32:08.484Z,995.44
2023-11-17T07:33:08.468Z,995.38
2023-11-17T07:34:08.449Z,995.47
2023-11-17T07:35:08.423Z,995.41
2023-11-17T07:36:08.464Z,995.50
2023-11-17T07:37:08.485Z,995.58
2023-11-17T07:38:08.566Z,995.53
2023-11-17T07:39:08.399Z,995.58
2023-11-17T07:40:08.485Z,995.56
2023-11-17T07:41:08.479Z,995.58
2023-11-17T07:42:08.485Z,995.57
2023-11-17T07:43:08.482Z,995.59
2023-11-17T07:44:08.522Z,995.55
2023-11-17T07:45:08.512Z,995.53
2023-11-17T07:46:08.369Z,995.54
2023-11-17T07:47:08.376Z,995.51
2023-11-17T07:48:08.475Z,995.54
2023-11-17T07:49:08.339Z,995.54
2023-11-17T07:50:08.351Z,995.54
2023-11-17T07:51:08.309Z,995.58
2023-11-17T07:52:08.324Z,995.61
2023-11-17T07:53:08.318Z,995.61
2023-11-17T07:54:08.284Z,995.59
2023-11-17T07:55:08.319Z,995.65
2023-11-17T07:56:08.338Z,995.70
2023-11-17T07:57:08.264Z,995.67
2023-11-17T07:58:08.461Z,995.65
2023-11-17T07:59:08.308Z,995.73
2023-11-17T08:00:08.243Z,995.75
2023-11-17T08:01:08.340Z,995.71
2023-11-17T08:02:08.230Z,995.70
2023-11-17T08:03:08.322Z,995.76
2023-11-17T08:04:08.396Z,995.76
2023-11-17T08:05:08.284Z,995.77
2023-11-17T08:06:08.210Z,995.79
2023-11-17T08:07:08.223Z,995.70
2023-11-17T08:08:08.217Z,995.77
2023-11-17T08:09:08.289Z,995.75
2023-11-17T08:10:08.233Z,995.79
2023-11-17T08:11:08.180Z,995.78
2023-11-17T08:12:08.171Z,995.88
2023-11-17T08:13:08.203Z,995.81
2023-11-17T08:14:08.267Z,995.82
2023-11-17T08:15:08.148Z,995.75
2023-11-17T08:16:08.277Z,995.76
2023-11-17T08:17:08.169Z,995.81
2023-11-17T08:18:08.280Z,995.72
2023-11-17T08:19:18.158Z,995.76
2023-11-17T08:20:09.136Z,995.79
2023-11-17T08:21:08.201Z,995.84
2023-11-17T08:22:08.143Z,995.83
2023-11-17T08:23:08.127Z,995.86
2023-11-17T08:24:08.083Z,995.78
2023-11-17T08:25:08.136Z,995.86
2023-11-17T08:26:08.062Z,995.92
2023-11-17T08:27:08.061Z,995.86
2023-11-17T08:28:08.143Z,995.91
2023-11-17T08:29:08.052Z,995.92
2023-11-17T08:30:08.165Z,995.90
2023-11-17T08:31:08.096Z,995.89
2023-11-17T08:32:08.209Z,995.96
2023-11-17T08:33:08.615Z,995.93
2023-11-17T08:34:08.210Z,995.96
2023-11-17T08:35:08.020Z,995.92
2023-11-17T08:36:08.002Z,995.98
2023-11-17T08:37:08.022Z,995.98
2023-11-17T08:38:08.048Z,995.98
2023-11-17T08:39:07.978Z,995.96
2023-11-17T08:40:08.028Z,995.89
2023-11-17T08:41:07.998Z,995.92
2023-11-17T08:42:07.994Z,995.99
2023-11-17T08:43:08.237Z,995.93
2023-11-17T08:44:08.214Z,995.90
2023-11-17T08:45:08.045Z,995.92
2023-11-17T08:46:08.309Z,995.89
2023-11-17T08:47:08.008Z,995.95
2023-11-17T08:48:07.986Z,995.95
2023-11-17T08:49:07.937Z,995.99
2023-11-17T08:50:07.962Z,995.98
2023-11-17T08:51:07.925Z,995.95
2023-11-17T08:52:08.139Z,996.01
2023-11-17T08:53:07.916Z,996.00
2023-11-17T08:54:07.902Z,996.07
2023-11-17T08:55:08.002Z,996.02
2023-11-17T08:56:07.894Z,996.05
2023-11-17T08:57:07.862Z,996.09
2023-11-17T08:58:08.001Z,996.07
2023-11-17T08:59:07.852Z,996.06
2023-11-17T09:00:07.879Z,996.06
2023-11-17T09:01:07.901Z,996.03
2023-11-17T09:02:08.096Z,996.07
2023-11-17T09:03:08.316Z,996.05
2023-11-17T09:04:07.896Z,996.09
2023-11-17T09:05:07.829Z,996.02
2023-11-17T09:06:07.855Z,996.05
2023-11-17T09:07:07.843Z,996.06
2023-11-17T09:08:07.814Z,996.08
2023-11-17T09:09:19.982Z,996.16
2023-11-17T09:10:08.807Z,996.14
2023-11-17T09:11:07.857Z,996.11
2023-11-17T09:12:07.756Z,996.07
2023-11-17T09:13:07.857Z,996.16
2023-11-17T09:14:07.791Z,996.18
2023-11-17T09:15:07.744Z,996.17
2023-11-17T09:16:07.878Z,996.09
2023-11-17T09:17:07.962Z,996.10
2023-11-17T09:18:07.914Z,996.02
2023-11-17T09:19:07.764Z,995.98
2023-11-17T09:20:07.706Z,996.06
2023-11-17T09:21:07.720Z,995.99
2023-11-17T09:22:07.827Z,996.04
2023-11-17T09:23:07.776Z,996.05
2023-11-17T09:24:07.717Z,995.98
2023-11-17T09:25:07.724Z,996.10
2023-11-17T09:26:07.689Z,996.04
2023-11-17T09:27:07.680Z,996.02
2023-11-17T09:28:07.697Z,996.06
2023-11-17T09:29:07.695Z,996.03
2023-11-17T09:30:07.649Z,996.05
2023-11-17T09:31:07.666Z,996.06
2023-11-17T09:32:07.651Z,996.01
2023-11-17T09:33:07.723Z,995.98
2023-11-17T09:34:07.833Z,996.05
2023-11-17T09:35:07.612Z,996.08
2023-11-17T09:36:07.627Z,996.03
2023-11-17T09:37:07.624Z,996.03
2023-11-17T09:38:07.626Z,996.08
2023-11-17T09:39:07.670Z,996.06
2023-11-17T09:40:07.614Z,996.06
2023-11-17T09:41:07.584Z,996.16
2023-11-17T09:42:07.561Z,996.13
2023-11-17T09:43:07.691Z,996.16
2023-11-17T09:44:07.576Z,996.13
2023-11-17T09:45:07.553Z,996.19
2023-11-17T09:46:07.576Z,996.20
2023-11-17T09:47:07.545Z,996.24
2023-11-17T09:48:07.616Z,996.21
2023-11-17T09:49:07.568Z,996.31
2023-11-17T09:50:07.653Z,996.20
2023-11-17T09:51:07.509Z,996.27
2023-11-17T09:52:07.520Z,996.29
2023-11-17T09:53:07.535Z,996.26
2023-11-17T09:54:07.485Z,996.27
2023-11-17T09:55:07.481Z,996.29
2023-11-17T09:56:07.503Z,996.26
2023-11-17T09:57:07.492Z,996.27
2023-11-17T09:58:08.066Z,996.28
2023-11-17T09:59:07.489Z,996.26
2023-11-17T10:00:07.479Z,996.29
2023-11-17T10:01:07.512Z,996.28
2023-11-17T10:02:07.535Z,996.22
2023-11-17T10:03:07.496Z,996.27
2023-11-17T10:04:07.620Z,996.25
2023-11-17T10:05:07.446Z,996.24
2023-11-17T10:06:07.539Z,996.22
2023-11-17T10:07:07.417Z,996.21
2023-11-17T10:08:07.407Z,996.21
2023-11-17T10:09:07.386Z,996.19
2023-11-17T10:10:07.383Z,996.21
2023-11-17T10:11:07.402Z,996.19
2023-11-17T10:12:07.369Z,996.20
2023-11-17T10:13:07.393Z,996.15
2023-11-17T10:14:07.386Z,996.14
2023-11-17T10:15:07.339Z,996.09
2023-11-17T10:16:07.409Z,996.21
2023-11-17T10:17:07.362Z,996.23
2023-11-17T10:18:07.330Z,996.24
2023-11-17T10:19:07.350Z,996.22
2023-11-17T10:20:07.300Z,996.28
2023-11-17T10:21:07.302Z,996.26
2023-11-17T10:22:07.448Z,996.24
2023-11-17T10:23:07.279Z,996.20
2023-11-17T10:24:07.303Z,996.27
2023-11-17T10:25:07.274Z,996.21
2023-11-17T10:26:07.322Z,996.22
2023-11-17T10:27:07.253Z,996.21
2023-11-17T10:28:07.281Z,996.16
2023-11-17T10:29:07.245Z,996.22
2023-11-17T10:30:07.294Z,996.23
2023-11-17T10:31:07.259Z,996.19
2023-11-17T10:32:22.720Z,996.20
2023-11-17T10:33:14.790Z,996.22
2023-11-17T10:34:08.316Z,996.22
2023-11-17T10:35:07.487Z,996.24
2023-11-17T10:36:07.183Z,996.20
2023-11-17T10:37:07.202Z,996.15
2023-11-17T10:38:07.295Z,996.25
2023-11-17T10:39:07.173Z,996.22
2023-11-17T10:40:11.534Z,996.28
2023-11-17T10:41:08.164Z,996.28
2023-11-17T10:42:07.137Z,996.29
2023-11-17T10:43:07.147Z,996.29
2023-11-17T10:44:07.126Z,996.32
2023-11-17T10:45:07.790Z,996.33
2023-11-17T10:46:07.217Z,996.34
2023-11-17T10:47:07.250Z,996.37
2023-11-17T10:48:07.139Z,996.32
2023-11-17T10:49:07.173Z,996.37
2023-11-17T10:50:07.108Z,996.37
2023-11-17T10:51:07.356Z,996.41
2023-11-17T10:52:07.149Z,996.33
2023-11-17T10:53:07.067Z,996.38
2023-11-17T10:54:07.298Z,996.40
2023-11-17T10:55:07.095Z,996.36
2023-11-17T10:56:07.088Z,996.38
2023-11-17T10:57:07.059Z,996.33
2023-11-17T10:58:07.053Z,996.37
2023-11-17T10:59:07.026Z,996.40
2023-11-17T11:00:07.132Z,996.36
2023-11-17T11:01:07.074Z,996.36
2023-11-17T11:02:07.014Z,996.40
2023-11-17T11:03:07.039Z,996.34
2023-11-17T11:04:07.096Z,996.36
2023-11-17T11:05:06.982Z,996.36
2023-11-17T11:06:07.036Z,996.27
2023-11-17T11:07:06.970Z,996.35
2023-11-17T11:08:06.957Z,996.25
2023-11-17T11:09:06.975Z,996.30
2023-11-17T11:10:07.110Z,996.27
2023-11-17T11:11:06.986Z,996.30
2023-11-17T11:12:06.929Z,996.30
2023-11-17T11:13:06.957Z,996.30
2023-11-17T11:14:06.913Z,996.34
2023-11-17T11:15:06.977Z,996.26
2023-11-17T11:16:07.659Z,996.30
2023-11-17T11:17:06.960Z,996.30
2023-11-17T11:18:06.937Z,996.28
2023-11-17T11:19:06.902Z,996.30
2023-11-17T11:20:21.315Z,996.28
2023-11-17T11:21:08.046Z,996.29
2023-11-17T11:22:06.871Z,996.29
2023-11-17T11:23:06.847Z,996.29
2023-11-17T11:24:06.899Z,996.21
2023-11-17T11:25:07.084Z,996.28
2023-11-17T11:26:07.137Z,996.28
2023-11-17T11:27:07.082Z,996.31
2023-11-17T11:28:06.831Z,996.36
2023-11-17T11:29:06.814Z,996.31
2023-11-17T11:30:06.878Z,996.37
2023-11-17T11:31:06.847Z,996.35
2023-11-17T11:32:06.879Z,996.40
2023-11-17T11:33:06.880Z,996.42
2023-11-17T11:34:06.792Z,996.35
2023-11-17T11:35:06.784Z,996.37
2023-11-17T11:36:06.773Z,996.44
2023-11-17T11:37:06.855Z,996.37
2023-11-17T11:38:06.745Z,996.38
2023-11-17T11:39:06.742Z,996.42
2023-11-17T11:40:06.828Z,996.44
2023-11-17T11:41:06.870Z,996.41
2023-11-17T11:42:06.838Z,996.46
2023-11-17T11:43:06.758Z,996.41
2023-11-17T11:44:06.697Z,996.47
2023-11-17T11:45:06.702Z,996.45
2023-11-17T11:46:06.765Z,996.42
2023-11-17T11:47:07.231Z,996.39
2023-11-17T11:48:06.697Z,996.39
2023-11-17T11:49:06.677Z,996.43
2023-11-17T11:50:06.658Z,996.41
2023-11-17T11:51:06.656Z,996.47
2023-11-17T11:52:06.697Z,996.40
2023-11-17T11:53:06.662Z,996.43
2023-11-17T11:54:06.988Z,996.48
2023-11-17T11:55:06.669Z,996.44
2023-11-17T11:56:06.828Z,996.45
2023-11-17T11:57:06.859Z,996.50
2023-11-17T11:58:06.771Z,996.43
2023-11-17T11:59:06.622Z,996.49
2023-11-17T12:00:06.588Z,996.50
2023-11-17T12:01:06.610Z,996.52
2023-11-17T12:02:06.620Z,996.57
2023-11-17T12:03:06.672Z,996.58
2023-11-17T12:04:06.759Z,996.54
2023-11-17T12:05:06.647Z,996.51
2023-11-17T12:06:06.764Z,996.51
2023-11-17T12:07:06.839Z,996.54
2023-11-17T12:08:06.533Z,996.51
2023-11-17T12:09:06.517Z,996.49
2023-11-17T12:10:06.607Z,996.56
2023-11-17T12:11:06.505Z,996.47
2023-11-17T12:12:06.516Z,996.35
2023-11-17T12:13:06.544Z,996.45
2023-11-17T12:14:06.712Z,996.50
2023-11-17T12:15:06.495Z,996.54
2023-11-17T12:16:06.495Z,996.45
2023-11-17T12:17:06.581Z,996.49
2023-11-17T12:18:06.634Z,996.50
2023-11-17T12:19:06.518Z,996.48
2023-11-17T12:20:06.449Z,996.55
2023-11-17T12:21:06.445Z,996.53
2023-11-17T12:22:06.597Z,996.58
2023-11-17T12:23:06.430Z,996.59
2023-11-17T12:24:06.411Z,996.54
2023-11-17T12:25:06.440Z,996.48
2023-11-17T12:26:06.401Z,996.60
2023-11-17T12:27:07.022Z,996.56
2023-11-17T12:28:06.426Z,996.50